Time;durP1;ratioP1;P1;durP2;ratioP2;P2;SDS_P1;SDS_P2;PMS_P1;PMS_P2;Temp;Humidity;BMP_temperature;BMP_pressure;BME280_temperature;BME280_humidity;BME280_pressure;Samples;Min_cycle;Max_cycle;Signal;HPM_P1;HPM_P2
2021/09/27 00:00:46;;;;;;;8.88;6.65;;;17.10;99.90;;;;;;5014042;28;20061;-80
2021/09/27 00:03:13;;;;;;;8.40;6.30;;;17.20;99.90;;;;;;5014389;28;20026;-80
2021/09/27 00:05:39;;;;;;;8.43;6.03;;;17.10;99.90;;;;;;5014960;28;20032;-80
2021/09/27 00:08:05;;;;;;;6.97;6.00;;;17.10;99.90;;;;;;5014910;28;20025;-80
2021/09/27 00:10:43;;;;;;;10.35;6.47;;;17.10;99.90;;;;;;5014942;28;20049;-80
2021/09/27 00:13:10;;;;;;;7.05;6.00;;;17.10;99.90;;;;;;5014800;28;20077;-80
2021/09/27 00:15:39;;;;;;;8.60;6.68;;;17.10;99.90;;;;;;5013294;28;20044;-80
2021/09/27 00:18:06;;;;;;;9.25;7.03;;;17.10;99.90;;;;;;5014573;28;20076;-80
2021/09/27 00:20:33;;;;;;;9.68;5.60;;;17.10;99.90;;;;;;5014788;28;20033;-80
2021/09/27 00:22:59;;;;;;;7.75;5.95;;;17.10;99.90;;;;;;5013369;28;20123;-80
2021/09/27 00:25:26;;;;;;;6.95;6.03;;;17.20;99.90;;;;;;5013120;28;20404;-80
2021/09/27 00:27:52;;;;;;;9.75;6.10;;;17.10;99.90;;;;;;5014533;28;20033;-80
2021/09/27 00:30:19;;;;;;;7.47;6.30;;;17.10;99.90;;;;;;5014608;28;20053;-80
2021/09/27 00:32:45;;;;;;;6.18;5.57;;;17.10;99.90;;;;;;5014409;28;20037;-80
2021/09/27 00:35:15;;;;;;;6.72;6.03;;;17.10;99.90;;;;;;5014421;28;20033;-80
2021/09/27 00:37:41;;;;;;;7.72;6.35;;;17.10;99.90;;;;;;5014533;28;20025;-80
2021/09/27 00:40:09;;;;;;;10.23;6.03;;;17.10;99.90;;;;;;5013073;28;20137;-80
2021/09/27 00:42:35;;;;;;;9.80;5.53;;;17.10;99.90;;;;;;5014145;28;20060;-80
2021/09/27 00:45:03;;;;;;;9.73;6.50;;;17.10;99.90;;;;;;5014145;28;20022;-80
2021/09/27 00:47:28;;;;;;;8.20;6.10;;;17.00;99.90;;;;;;5012769;28;20024;-80
2021/09/27 00:49:56;;;;;;;6.93;5.82;;;17.00;99.90;;;;;;5012849;28;20026;-80
2021/09/27 00:52:21;;;;;;;11.32;6.20;;;17.00;99.90;;;;;;5014252;28;20033;-80
2021/09/27 00:54:48;;;;;;;10.45;6.47;;;17.00;99.90;;;;;;5012574;28;20046;-80
2021/09/27 00:57:17;;;;;;;7.15;6.50;;;17.00;99.90;;;;;;5012490;28;20164;-80
2021/09/27 00:59:48;;;;;;;8.63;6.55;;;17.00;99.90;;;;;;5012717;28;20439;-80
2021/09/27 01:02:14;;;;;;;11.27;6.20;;;17.00;99.90;;;;;;5013939;28;20036;-80
2021/09/27 01:04:40;;;;;;;6.90;5.95;;;17.00;99.90;;;;;;5013715;28;20026;-80
2021/09/27 01:07:29;;;;;;;10.15;6.35;;;17.00;99.90;;;;;;5013674;28;20369;-80
2021/09/27 01:10:33;;;;;;;6.95;5.97;;;17.00;99.90;;;;;;5045630;28;20229;-80
2021/09/27 01:13:18;;;;;;;7.90;5.28;;;17.00;99.90;;;;;;5013908;28;20017;-80
2021/09/27 01:15:48;;;;;;;7.03;5.80;;;17.00;99.90;;;;;;5045451;28;20088;-80
2021/09/27 01:18:33;;;;;;;10.95;6.97;;;17.00;99.90;;;;;;5012099;28;20026;-80
2021/09/27 01:21:20;;;;;;;7.45;6.20;;;17.00;99.90;;;;;;5013745;28;20044;-80
2021/09/27 01:24:01;;;;;;;9.57;6.13;;;17.00;99.90;;;;;;5045376;28;20034;-80
2021/09/27 01:26:38;;;;;;;7.30;6.45;;;17.00;99.90;;;;;;5013294;28;20033;-80
2021/09/27 01:29:25;;;;;;;9.95;6.60;;;17.00;99.90;;;;;;5013193;28;20033;-80
2021/09/27 01:32:16;;;;;;;7.88;5.85;;;16.90;99.90;;;;;;5012123;28;20022;-80
2021/09/27 01:34:53;;;;;;;6.32;5.50;;;16.90;99.90;;;;;;5012773;28;20037;-80
2021/09/27 01:37:19;;;;;;;7.82;6.03;;;16.90;99.90;;;;;;5011777;28;20026;-80
2021/09/27 01:40:08;;;;;;;8.20;6.40;;;17.00;99.90;;;;;;5013311;28;20042;-80
2021/09/27 01:42:45;;;;;;;6.38;5.78;;;17.00;99.90;;;;;;5013336;28;20309;-80
2021/09/27 01:45:35;;;;;;;9.77;5.97;;;17.00;99.90;;;;;;5011699;28;20058;-80
2021/09/27 01:48:19;;;;;;;6.70;5.20;;;17.00;99.90;;;;;;5044844;28;20516;-80
2021/09/27 01:51:00;;;;;;;8.35;5.80;;;16.90;99.90;;;;;;5013061;28;20113;-80
2021/09/27 01:53:42;;;;;;;7.65;6.00;;;16.90;99.90;;;;;;5012841;28;20050;-80
2021/09/27 01:56:29;;;;;;;8.18;6.32;;;17.00;99.90;;;;;;5012292;28;20545;-80
2021/09/27 01:59:16;;;;;;;7.03;6.32;;;16.90;99.90;;;;;;5012638;28;20091;-80
2021/09/27 02:01:59;;;;;;;11.57;6.05;;;16.90;99.90;;;;;;5012813;28;20393;-80
2021/09/27 02:04:32;;;;;;;6.38;5.70;;;16.90;99.90;;;;;;5011343;28;20029;-80
2021/09/27 02:07:00;;;;;;;6.30;5.70;;;16.80;99.90;;;;;;5011356;28;20025;-80
2021/09/27 02:09:40;;;;;;;6.18;5.35;;;16.80;99.90;;;;;;5012129;28;20504;-80
2021/09/27 02:12:15;;;;;;;8.07;6.05;;;16.80;99.90;;;;;;5044481;28;20032;-80
2021/09/27 02:14:53;;;;;;;7.05;5.32;;;16.80;99.90;;;;;;5011390;28;20401;-80
2021/09/27 02:17:31;;;;;;;7.32;5.88;;;16.80;99.90;;;;;;5012365;28;20045;-80
2021/09/27 02:20:06;;;;;;;6.25;5.20;;;16.70;99.90;;;;;;5044207;28;20115;-80
2021/09/27 02:22:49;;;;;;;7.05;5.85;;;16.60;99.90;;;;;;5012354;28;20029;-80
2021/09/27 02:25:31;;;;;;;6.68;5.65;;;16.50;99.90;;;;;;5011079;28;20029;-80
2021/09/27 02:27:58;;;;;;;8.82;6.10;;;16.60;99.90;;;;;;5011023;28;20033;-80
2021/09/27 02:30:52;;;;;;;7.88;5.78;;;16.60;99.90;;;;;;5012131;28;20022;-80
2021/09/27 02:33:28;;;;;;;5.93;5.43;;;16.70;99.90;;;;;;5043917;28;20079;-80
2021/09/27 02:36:05;;;;;;;6.40;5.30;;;16.70;99.90;;;;;;5012179;28;20500;-80
2021/09/27 02:38:47;;;;;;;8.32;5.70;;;16.70;99.90;;;;;;5012214;28;20030;-80
2021/09/27 02:41:22;;;;;;;6.18;5.35;;;16.60;99.90;;;;;;5012079;28;20025;-80
2021/09/27 02:43:47;;;;;;;8.63;5.13;;;16.60;99.90;;;;;;5010690;28;20030;-80
2021/09/27 02:46:15;;;;;;;6.70;5.78;;;16.60;99.90;;;;;;5010761;28;20022;-80
2021/09/27 02:48:47;;;;;;;10.13;5.65;;;16.60;99.90;;;;;;5010709;28;20049;-80
2021/09/27 02:51:13;;;;;;;7.75;5.85;;;16.60;99.90;;;;;;5012081;28;20061;-80
2021/09/27 02:53:41;;;;;;;10.25;5.78;;;16.50;99.90;;;;;;5010458;28;20061;-80
2021/09/27 02:56:10;;;;;;;6.18;5.40;;;16.50;99.90;;;;;;5011859;28;20045;-80
2021/09/27 02:59:03;;;;;;;6.88;5.47;;;16.50;99.90;;;;;;5010566;28;20021;-80
2021/09/27 03:01:47;;;;;;;9.10;5.60;;;16.50;99.90;;;;;;5011816;28;20033;-80
2021/09/27 03:04:19;;;;;;;6.55;5.55;;;16.50;99.90;;;;;;5011641;28;20022;-80
2021/09/27 03:07:03;;;;;;;8.75;5.45;;;16.40;99.90;;;;;;5011658;28;20065;-80
2021/09/27 03:09:49;;;;;;;8.80;5.75;;;16.50;99.90;;;;;;5011636;28;20026;-80
2021/09/27 03:12:20;;;;;;;7.00;5.75;;;16.40;99.90;;;;;;5011865;28;20022;-80
2021/09/27 03:15:00;;;;;;;7.25;5.13;;;16.40;99.90;;;;;;5011785;28;20408;-80
2021/09/27 03:17:52;;;;;;;6.18;5.53;;;16.40;99.90;;;;;;5011514;28;20472;-80
2021/09/27 03:20:36;;;;;;;5.72;5.07;;;16.40;99.90;;;;;;5011217;28;20278;-80
2021/09/27 03:23:06;;;;;;;6.28;5.45;;;16.40;99.90;;;;;;5011599;28;20034;-80
2021/09/27 03:25:52;;;;;;;7.75;5.63;;;16.40;99.90;;;;;;5011431;28;20100;-80
2021/09/27 03:28:45;;;;;;;7.40;5.45;;;16.40;99.90;;;;;;5011241;28;20033;-80
2021/09/27 03:31:20;;;;;;;7.78;5.45;;;16.40;99.90;;;;;;5011474;28;20062;-80
2021/09/27 03:34:01;;;;;;;5.50;4.97;;;16.50;99.90;;;;;;5010165;28;20354;-80
2021/09/27 03:36:35;;;;;;;8.63;5.43;;;16.50;99.90;;;;;;5010254;28;20120;-80
2021/09/27 03:39:28;;;;;;;6.88;5.18;;;16.50;99.90;;;;;;5011410;28;20491;-80
2021/09/27 03:42:14;;;;;;;8.23;5.60;;;16.50;99.90;;;;;;5010071;28;20033;-80
2021/09/27 03:44:52;;;;;;;7.03;5.35;;;16.50;99.90;;;;;;5011515;28;20377;-80
2021/09/27 03:47:38;;;;;;;5.50;4.95;;;16.50;99.90;;;;;;5011349;28;20022;-81
2021/09/27 03:50:26;;;;;;;5.18;4.75;;;16.50;99.90;;;;;;5010098;28;20491;-80
2021/09/27 03:53:14;;;;;;;6.50;5.05;;;16.40;99.90;;;;;;5009890;28;20030;-80
2021/09/27 03:55:54;;;;;;;7.72;5.55;;;16.50;99.90;;;;;;5011346;28;20030;-80
2021/09/27 03:58:28;;;;;;;5.57;4.93;;;16.50;99.90;;;;;;5011310;28;20053;-80
2021/09/27 04:00:57;;;;;;;9.52;5.38;;;16.50;99.90;;;;;;4993693;28;20026;-80
2021/09/27 04:03:45;;;;;;;6.93;4.78;;;16.50;99.90;;;;;;5011393;28;20026;-80
2021/09/27 04:06:30;;;;;;;5.45;4.95;;;16.50;99.90;;;;;;5011165;28;20034;-80
2021/09/27 04:09:01;;;;;;;7.68;4.80;;;16.40;99.90;;;;;;5010767;28;20022;-80
2021/09/27 04:11:51;;;;;;;8.02;4.68;;;16.30;99.90;;;;;;5009957;28;20125;-80
2021/09/27 04:14:26;;;;;;;6.78;4.80;;;16.30;99.90;;;;;;5009788;28;20476;-80
2021/09/27 04:17:26;;;;;;;8.10;4.63;;;16.30;99.90;;;;;;5009786;28;20045;-80
2021/09/27 04:20:13;;;;;;;5.68;5.18;;;16.40;99.90;;;;;;5013147;28;20029;-80
2021/09/27 04:22:51;;;;;;;5.75;4.60;;;16.40;99.90;;;;;;5014641;28;20022;-80
2021/09/27 04:25:31;;;;;;;5.22;4.70;;;16.40;99.90;;;;;;5014605;28;20499;-80
2021/09/27 04:28:08;;;;;;;5.47;4.70;;;16.40;99.90;;;;;;5013120;28;20543;-80
2021/09/27 04:30:43;;;;;;;5.78;4.78;;;16.40;99.90;;;;;;5014466;28;20076;-80
2021/09/27 04:33:21;;;;;;;7.40;4.95;;;16.40;99.90;;;;;;5013128;28;20030;-80
2021/09/27 04:36:07;;;;;;;5.05;4.70;;;16.40;99.90;;;;;;5013027;28;20034;-80
2021/09/27 04:38:36;;;;;;;5.43;4.93;;;16.30;99.90;;;;;;5007037;28;20041;-80
2021/09/27 04:41:23;;;;;;;5.97;5.45;;;16.30;99.90;;;;;;5012962;28;20034;-80
2021/09/27 04:44:09;;;;;;;5.80;5.00;;;16.30;99.90;;;;;;5014350;28;20088;-80
2021/09/27 04:46:56;;;;;;;5.68;5.05;;;16.30;99.90;;;;;;5014011;28;20022;-80
2021/09/27 04:49:51;;;;;;;8.57;5.32;;;16.30;99.90;;;;;;5014201;28;20034;-80
2021/09/27 04:52:53;;;;;;;5.80;4.85;;;16.40;99.90;;;;;;5012953;28;20412;-80
2021/09/27 04:55:37;;;;;;;5.15;4.65;;;16.40;99.90;;;;;;5013195;28;20046;-80
2021/09/27 04:58:32;;;;;;;5.60;4.55;;;16.40;99.90;;;;;;5043464;28;20038;-81
2021/09/27 05:01:23;;;;;;;5.80;4.80;;;16.40;99.90;;;;;;4997989;28;20029;-80
2021/09/27 05:04:16;;;;;;;4.80;4.25;;;16.40;99.90;;;;;;5045715;28;20029;-80
2021/09/27 05:07:06;;;;;;;6.38;4.60;;;16.40;99.90;;;;;;5045535;28;20138;-80
2021/09/27 05:09:32;;;;;;;8.65;5.57;;;16.30;99.90;;;;;;5012368;28;20028;-80
2021/09/27 05:12:13;;;;;;;5.78;5.18;;;16.30;99.90;;;;;;5045527;28;20117;-80
2021/09/27 05:15:16;;;;;;;6.07;5.28;;;16.30;99.90;;;;;;5045727;28;20030;-81
2021/09/27 05:18:00;;;;;;;9.60;5.13;;;16.20;99.90;;;;;;5012109;28;20457;-80
2021/09/27 05:20:44;;;;;;;9.95;5.50;;;16.00;99.90;;;;;;5013518;28;20026;-80
2021/09/27 05:23:28;;;;;;;5.70;5.10;;;16.00;99.90;;;;;;5012151;28;20018;-80
2021/09/27 05:26:12;;;;;;;6.85;5.88;;;16.00;99.90;;;;;;5011834;28;20026;-80
2021/09/27 05:28:44;;;;;;;9.65;6.25;;;16.10;99.90;;;;;;5013168;28;20029;-80
2021/09/27 05:31:44;;;;;;;6.13;5.53;;;16.00;99.90;;;;;;5012507;28;20097;-80
2021/09/27 05:34:22;;;;;;;6.35;5.43;;;16.00;99.90;;;;;;5013097;28;20024;-80
2021/09/27 05:37:09;;;;;;;8.23;6.10;;;16.00;99.90;;;;;;5012656;28;20029;-80
2021/09/27 05:39:49;;;;;;;9.48;5.53;;;16.10;99.90;;;;;;5014996;28;20026;-80
2021/09/27 05:42:33;;;;;;;5.75;4.90;;;16.10;99.90;;;;;;5015058;28;20092;-80
2021/09/27 05:45:18;;;;;;;8.02;4.65;;;16.10;99.90;;;;;;5013524;28;20476;-80
2021/09/27 05:48:34;;;;;;;7.55;5.57;;;16.10;99.90;;;;;;5013659;28;20025;-80
2021/09/27 05:51:18;;;;;;;6.85;5.00;;;16.00;99.90;;;;;;4952358;28;20079;-80
2021/09/27 05:54:04;;;;;;;6.88;5.20;;;16.10;99.90;;;;;;5007710;28;20140;-80
2021/09/27 05:56:46;;;;;;;5.93;5.05;;;16.00;99.90;;;;;;5001222;28;20400;-80
2021/09/27 05:59:18;;;;;;;6.65;5.38;;;16.10;99.90;;;;;;5011656;28;20075;-80
2021/09/27 06:02:02;;;;;;;5.55;4.82;;;16.10;99.90;;;;;;5044124;28;20026;-80
2021/09/27 06:04:45;;;;;;;6.25;5.63;;;16.00;99.90;;;;;;5011647;28;20049;-80
2021/09/27 06:07:35;;;;;;;7.32;5.95;;;16.00;99.90;;;;;;5012562;28;20492;-80
2021/09/27 06:10:23;;;;;;;9.25;6.07;;;16.10;99.90;;;;;;5011525;28;20037;-80
2021/09/27 06:13:06;;;;;;;10.10;6.85;;;16.10;99.90;;;;;;5012630;28;20033;-80
2021/09/27 06:15:47;;;;;;;8.27;5.88;;;16.10;99.90;;;;;;5012656;28;20030;-80
2021/09/27 06:18:41;;;;;;;6.97;5.60;;;16.20;99.90;;;;;;5011112;28;20029;-80
2021/09/27 06:21:06;;;;;;;6.68;4.65;;;16.20;99.90;;;;;;5012473;28;20034;-80
2021/09/27 06:24:10;;;;;;;7.68;5.20;;;16.30;99.90;;;;;;5012601;28;20026;-80
2021/09/27 06:26:44;;;;;;;7.45;5.20;;;16.30;99.90;;;;;;5011448;28;20111;-79
2021/09/27 06:29:24;;;;;;;6.63;5.38;;;16.30;99.90;;;;;;5012524;28;20061;-77
2021/09/27 06:32:02;;;;;;;7.07;5.72;;;16.30;99.90;;;;;;5009072;28;20388;-77
2021/09/27 06:34:46;;;;;;;6.00;5.10;;;16.30;99.90;;;;;;5010383;28;20074;-77
2021/09/27 06:37:12;;;;;;;9.73;6.68;;;16.40;99.90;;;;;;5010590;28;20026;-77
2021/09/27 06:39:38;;;;;;;9.27;6.10;;;16.40;99.90;;;;;;5010806;28;20025;-77
2021/09/27 06:42:04;;;;;;;8.70;4.97;;;16.50;99.90;;;;;;5009116;28;20148;-77
2021/09/27 06:44:30;;;;;;;9.77;6.10;;;16.50;99.90;;;;;;5011309;28;20408;-77
2021/09/27 06:46:56;;;;;;;7.80;6.43;;;16.50;99.90;;;;;;5013587;28;20029;-77
2021/09/27 06:49:22;;;;;;;7.25;5.10;;;16.60;99.90;;;;;;5012157;28;20064;-77
2021/09/27 06:51:48;;;;;;;6.00;5.18;;;16.60;99.90;;;;;;5013637;28;20014;-77
2021/09/27 06:54:16;;;;;;;11.25;5.25;;;16.70;99.90;;;;;;5013114;28;20072;-77
2021/09/27 06:56:43;;;;;;;6.32;5.55;;;16.70;99.90;;;;;;5011478;28;20026;-77
2021/09/27 06:59:09;;;;;;;9.63;7.43;;;16.80;99.90;;;;;;5012992;28;20034;-77
2021/09/27 07:01:35;;;;;;;12.95;7.53;;;16.80;99.90;;;;;;5013042;28;20116;-77
2021/09/27 07:04:02;;;;;;;26.17;11.98;;;16.80;99.90;;;;;;5011585;28;20033;-77
2021/09/27 07:06:28;;;;;;;19.63;12.52;;;16.90;99.90;;;;;;5011458;28;20033;-77
2021/09/27 07:08:55;;;;;;;23.42;13.65;;;16.90;99.90;;;;;;5012615;28;20030;-77
2021/09/27 07:11:21;;;;;;;26.50;14.45;;;16.90;99.90;;;;;;5012566;28;20489;-77
2021/09/27 07:13:47;;;;;;;26.52;14.30;;;17.00;99.90;;;;;;5011338;28;20504;-77
2021/09/27 07:16:13;;;;;;;27.58;15.68;;;16.90;99.90;;;;;;5012564;28;20026;-77
2021/09/27 07:18:39;;;;;;;28.67;15.32;;;17.00;99.90;;;;;;5012733;28;20030;-77
2021/09/27 07:21:07;;;;;;;28.20;15.02;;;17.00;99.90;;;;;;5012254;28;20496;-77
2021/09/27 07:23:38;;;;;;;24.80;15.45;;;17.10;99.90;;;;;;5011870;28;20030;-77
2021/09/27 07:26:05;;;;;;;27.90;15.30;;;17.20;99.90;;;;;;5010431;28;20364;-77
2021/09/27 07:28:31;;;;;;;23.83;14.02;;;17.20;99.90;;;;;;5010272;28;20024;-77
2021/09/27 07:30:57;;;;;;;20.83;11.95;;;17.30;99.90;;;;;;5011550;28;20105;-77
2021/09/27 07:33:23;;;;;;;19.67;12.73;;;17.30;99.90;;;;;;5011814;28;20479;-77
2021/09/27 07:35:48;;;;;;;20.25;12.10;;;17.40;99.90;;;;;;5012040;28;20045;-77
2021/09/27 07:38:15;;;;;;;21.70;11.45;;;17.40;99.90;;;;;;5011542;28;20117;-77
2021/09/27 07:40:41;;;;;;;20.15;13.15;;;17.40;99.90;;;;;;5012014;28;20101;-77
2021/09/27 07:43:07;;;;;;;23.77;12.48;;;17.50;99.90;;;;;;5011810;28;20388;-76
2021/09/27 07:45:35;;;;;;;21.13;12.40;;;17.50;99.90;;;;;;5010392;28;20076;-77
2021/09/27 07:48:10;;;;;;;21.27;12.32;;;17.50;99.90;;;;;;5010419;28;20021;-77
2021/09/27 07:50:37;;;;;;;21.48;13.25;;;17.60;99.90;;;;;;5011792;28;20385;-76
2021/09/27 07:53:03;;;;;;;24.70;13.38;;;17.60;99.90;;;;;;5011811;28;20109;-76
2021/09/27 07:55:30;;;;;;;25.95;14.05;;;17.70;99.90;;;;;;5014982;28;20026;-77
2021/09/27 07:57:56;;;;;;;24.17;13.38;;;17.60;99.90;;;;;;5014101;28;20121;-76
2021/09/27 08:00:23;;;;;;;24.15;13.40;;;17.60;99.90;;;;;;5014102;28;20399;-77
2021/09/27 08:02:49;;;;;;;20.55;12.55;;;17.60;99.90;;;;;;5015457;28;20022;-77
2021/09/27 08:05:20;;;;;;;24.55;13.23;;;17.60;99.90;;;;;;5013428;28;20037;-77
2021/09/27 08:07:45;;;;;;;19.55;12.88;;;17.60;99.90;;;;;;5015378;28;20053;-77
2021/09/27 08:10:13;;;;;;;20.55;12.15;;;17.60;99.90;;;;;;5014869;28;20456;-77
2021/09/27 08:12:39;;;;;;;22.10;11.85;;;17.70;99.90;;;;;;5012276;28;20029;-77
2021/09/27 08:15:12;;;;;;;20.75;12.73;;;17.70;99.90;;;;;;5015017;28;20025;-77
2021/09/27 08:17:38;;;;;;;21.05;12.63;;;17.70;99.90;;;;;;5010006;28;20057;-76
2021/09/27 08:20:08;;;;;;;26.00;14.43;;;17.80;99.90;;;;;;5011565;28;20029;-79
2021/09/27 08:22:35;;;;;;;28.55;14.40;;;17.90;99.90;;;;;;5010950;28;20057;-78
2021/09/27 08:25:01;;;;;;;28.50;15.45;;;17.90;99.90;;;;;;5010861;28;20088;-77
2021/09/27 08:27:26;;;;;;;24.33;15.30;;;17.90;99.90;;;;;;5012038;28;20030;-79
2021/09/27 08:29:52;;;;;;;22.80;15.05;;;18.00;99.90;;;;;;5012387;28;20018;-79
2021/09/27 08:32:18;;;;;;;26.92;15.27;;;18.00;99.90;;;;;;5010710;28;20037;-79
2021/09/27 08:34:45;;;;;;;23.95;14.88;;;18.10;99.90;;;;;;5012213;28;20076;-78
2021/09/27 08:37:11;;;;;;;24.27;15.65;;;18.20;99.90;;;;;;5010448;28;20528;-79
2021/09/27 08:39:37;;;;;;;25.15;15.25;;;18.10;99.90;;;;;;5011780;28;20105;-78
2021/09/27 08:42:13;;;;;;;30.50;16.10;;;18.10;99.90;;;;;;5008569;28;20137;-78
2021/09/27 08:44:46;;;;;;;25.65;14.93;;;18.10;99.90;;;;;;5009570;28;20021;-78
2021/09/27 08:47:28;;;;;;;21.42;13.98;;;18.20;99.90;;;;;;5008894;28;20033;-78
2021/09/27 08:50:01;;;;;;;20.25;12.95;;;18.20;99.90;;;;;;5008546;28;20026;-78
2021/09/27 08:52:33;;;;;;;27.42;14.63;;;18.20;99.90;;;;;;5009357;28;20392;-79
2021/09/27 08:55:00;;;;;;;24.23;14.57;;;18.30;99.90;;;;;;5012141;28;20050;-79
2021/09/27 08:57:46;;;;;;;25.58;15.00;;;18.30;99.90;;;;;;5011730;28;20380;-79
2021/09/27 09:00:16;;;;;;;25.58;14.90;;;18.40;99.90;;;;;;5010041;28;20034;-77
2021/09/27 09:03:10;;;;;;;23.42;14.27;;;18.50;99.90;;;;;;5011612;28;20038;-77
2021/09/27 09:05:47;;;;;;;20.65;14.20;;;18.50;99.90;;;;;;5000574;28;20033;-77
2021/09/27 09:08:35;;;;;;;25.40;15.30;;;18.50;99.90;;;;;;5003665;28;20479;-79
2021/09/27 09:11:23;;;;;;;22.95;13.80;;;18.50;99.90;;;;;;5035817;28;20514;-78
2021/09/27 09:14:03;;;;;;;30.52;15.27;;;18.40;99.90;;;;;;5005829;28;20034;-78
2021/09/27 09:16:31;;;;;;;24.02;13.60;;;18.50;99.90;;;;;;5005835;28;20030;-77
2021/09/27 09:19:00;;;;;;;24.25;14.18;;;18.50;99.90;;;;;;5005786;28;20648;-78
2021/09/27 09:21:52;;;;;;;25.85;15.15;;;18.50;99.90;;;;;;5005062;28;20021;-77
2021/09/27 09:24:25;;;;;;;24.83;13.95;;;18.60;99.90;;;;;;4995019;28;20567;-77
2021/09/27 09:27:20;;;;;;;24.00;14.05;;;18.70;99.90;;;;;;5001898;28;20121;-77
2021/09/27 09:29:47;;;;;;;22.90;13.77;;;18.70;99.90;;;;;;5005526;28;20010;-78
2021/09/27 09:32:18;;;;;;;25.15;13.07;;;18.80;99.90;;;;;;5004396;28;20710;-78
2021/09/27 09:34:49;;;;;;;24.00;14.25;;;18.80;99.90;;;;;;5004844;28;20068;-78
2021/09/27 09:37:36;;;;;;;22.08;13.77;;;18.80;99.90;;;;;;5005467;28;20022;-78
2021/09/27 09:40:27;;;;;;;22.80;14.63;;;18.80;99.90;;;;;;5004516;28;20033;-78
2021/09/27 09:43:08;;;;;;;22.58;14.68;;;18.90;99.90;;;;;;5005105;28;20660;-78
2021/09/27 09:45:38;;;;;;;21.60;13.30;;;18.80;99.90;;;;;;5002610;28;20048;-78
2021/09/27 09:48:31;;;;;;;26.00;13.88;;;18.90;99.90;;;;;;5006868;28;20087;-79
2021/09/27 09:51:16;;;;;;;18.70;12.80;;;19.00;99.90;;;;;;5003920;28;20028;-78
2021/09/27 09:53:42;;;;;;;22.90;14.13;;;19.00;99.90;;;;;;5004511;28;20050;-78
2021/09/27 09:56:21;;;;;;;24.42;13.93;;;19.00;99.90;;;;;;5005819;28;20029;-79
2021/09/27 09:58:49;;;;;;;28.77;15.43;;;19.10;99.90;;;;;;5004711;28;20033;-78
2021/09/27 10:01:35;;;;;;;22.08;14.18;;;19.10;99.90;;;;;;5004845;28;20049;-77
2021/09/27 10:04:05;;;;;;;22.27;14.23;;;19.20;99.90;;;;;;5037883;28;20036;-78
2021/09/27 10:06:45;;;;;;;26.05;14.50;;;19.20;99.90;;;;;;5006819;28;20021;-78
2021/09/27 10:09:28;;;;;;;25.45;14.68;;;19.30;99.90;;;;;;5007286;28;20076;-78
2021/09/27 10:11:57;;;;;;;20.77;13.90;;;19.30;99.90;;;;;;5010092;28;20021;-78
2021/09/27 10:14:29;;;;;;;20.23;13.07;;;19.30;99.90;;;;;;5009283;28;20056;-78
2021/09/27 10:17:27;;;;;;;24.77;14.70;;;19.40;99.90;;;;;;5007314;28;20037;-78
2021/09/27 10:19:58;;;;;;;27.70;14.68;;;19.30;99.90;;;;;;5007926;28;20484;-78
2021/09/27 10:22:29;;;;;;;21.55;13.85;;;19.40;99.90;;;;;;5009943;28;20792;-78
2021/09/27 10:24:58;;;;;;;27.98;14.18;;;19.50;99.90;;;;;;5009619;28;20551;-80
2021/09/27 10:27:31;;;;;;;23.85;14.73;;;19.50;99.90;;;;;;5008480;28;20424;-79
2021/09/27 10:30:03;;;;;;;23.75;15.80;;;19.50;99.90;;;;;;5010648;28;20033;-79
2021/09/27 10:32:38;;;;;;;21.05;13.70;;;19.50;99.90;;;;;;5005924;28;20076;-79
2021/09/27 10:35:16;;;;;;;27.05;15.75;;;19.50;99.90;;;;;;5009333;28;20037;-79
2021/09/27 10:37:45;;;;;;;26.42;16.35;;;19.50;99.90;;;;;;5006131;28;20037;-79
2021/09/27 10:40:15;;;;;;;26.40;17.27;;;19.50;99.90;;;;;;5006465;28;20026;-77
2021/09/27 10:42:49;;;;;;;25.27;15.02;;;19.60;99.90;;;;;;5007767;28;20037;-77
2021/09/27 10:45:17;;;;;;;23.63;15.63;;;19.60;99.90;;;;;;5007889;28;20427;-77
2021/09/27 10:47:49;;;;;;;25.83;16.85;;;19.70;99.90;;;;;;5009522;28;20121;-78
2021/09/27 10:50:38;;;;;;;28.53;15.70;;;19.70;99.90;;;;;;5008659;28;20068;-77
2021/09/27 10:53:34;;;;;;;26.88;16.23;;;19.70;99.90;;;;;;5010155;28;20042;-79
2021/09/27 10:56:21;;;;;;;27.05;16.52;;;19.80;99.90;;;;;;5008936;28;20033;-77
2021/09/27 10:58:53;;;;;;;24.33;15.75;;;19.80;99.90;;;;;;5009320;28;20038;-79
2021/09/27 11:01:37;;;;;;;27.25;17.33;;;19.90;99.90;;;;;;5009695;28;20038;-79
2021/09/27 11:04:06;;;;;;;29.85;16.17;;;19.90;99.90;;;;;;5008311;28;20026;-77
2021/09/27 11:06:41;;;;;;;29.40;17.08;;;19.90;99.90;;;;;;5008791;28;20535;-78
2021/09/27 11:09:12;;;;;;;27.08;16.92;;;20.00;99.90;;;;;;5007387;28;20372;-78
2021/09/27 11:12:01;;;;;;;32.25;17.85;;;20.20;99.90;;;;;;5008139;28;20117;-76
2021/09/27 11:14:37;;;;;;;30.55;19.08;;;20.30;99.90;;;;;;5007811;28;20014;-78
2021/09/27 11:17:06;;;;;;;34.50;19.23;;;20.30;99.90;;;;;;5002989;28;20068;-78
2021/09/27 11:19:39;;;;;;;34.53;18.27;;;20.40;99.90;;;;;;5007932;28;20116;-78
2021/09/27 11:22:14;;;;;;;31.65;18.70;;;20.50;99.90;;;;;;5008962;28;20340;-78
2021/09/27 11:24:42;;;;;;;30.00;18.23;;;20.60;99.90;;;;;;5009890;28;20030;-78
2021/09/27 11:27:14;;;;;;;28.80;18.63;;;20.70;99.90;;;;;;5007841;28;20038;-78
2021/09/27 11:29:51;;;;;;;32.17;18.02;;;20.60;99.90;;;;;;5010889;28;20033;-78
2021/09/27 11:32:25;;;;;;;28.20;17.02;;;20.70;99.90;;;;;;5011930;28;20057;-78
2021/09/27 11:34:54;;;;;;;26.58;17.23;;;20.70;99.90;;;;;;5010785;28;20026;-77
2021/09/27 11:37:27;;;;;;;31.70;17.45;;;20.70;99.90;;;;;;5012269;28;20562;-78
2021/09/27 11:40:10;;;;;;;29.50;19.00;;;20.60;99.90;;;;;;5010865;28;20030;-77
2021/09/27 11:42:42;;;;;;;25.20;16.63;;;20.60;99.90;;;;;;5010605;28;20080;-78
2021/09/27 11:45:27;;;;;;;24.08;16.48;;;20.70;99.90;;;;;;5013282;28;20108;-78
2021/09/27 11:48:12;;;;;;;27.52;17.45;;;20.70;99.90;;;;;;5013741;28;20033;-78
2021/09/27 11:50:51;;;;;;;26.92;16.77;;;20.70;99.90;;;;;;5014385;28;20037;-78
2021/09/27 11:53:42;;;;;;;22.08;15.50;;;20.70;99.90;;;;;;5012353;28;20075;-78
2021/09/27 11:56:10;;;;;;;22.10;14.93;;;20.80;99.90;;;;;;5013766;28;20038;-78
2021/09/27 11:59:12;;;;;;;24.67;15.48;;;20.90;99.90;;;;;;5016183;28;20037;-77
2021/09/27 12:02:02;;;;;;;21.88;14.50;;;21.00;99.90;;;;;;5014662;28;20113;-78
2021/09/27 12:04:55;;;;;;;24.05;16.20;;;21.10;99.90;;;;;;5016175;28;20550;-78
2021/09/27 12:07:29;;;;;;;21.63;13.60;;;21.20;99.90;;;;;;5015958;28;20121;-77
2021/09/27 12:10:04;;;;;;;25.95;14.38;;;21.30;99.90;;;;;;5016083;28;20112;-77
2021/09/27 12:12:41;;;;;;;18.25;13.05;;;21.40;99.90;;;;;;5015673;28;20026;-77
2021/09/27 12:15:08;;;;;;;20.55;12.95;;;21.40;99.90;;;;;;5016023;28;20026;-77
2021/09/27 12:17:37;;;;;;;21.67;12.55;;;21.40;99.90;;;;;;5015685;28;20053;-77
2021/09/27 12:20:16;;;;;;;18.70;12.80;;;21.40;99.90;;;;;;5014574;28;20018;-78
2021/09/27 12:23:01;;;;;;;24.80;14.95;;;21.50;99.90;;;;;;5015729;28;20041;-77
2021/09/27 12:25:38;;;;;;;24.67;14.45;;;21.50;99.90;;;;;;5015837;28;20421;-78
2021/09/27 12:28:13;;;;;;;21.73;14.05;;;21.50;99.90;;;;;;5015739;28;20120;-77
2021/09/27 12:30:43;;;;;;;23.23;14.18;;;21.60;99.90;;;;;;4995981;28;20023;-78
2021/09/27 12:33:25;;;;;;;22.67;13.68;;;21.80;99.90;;;;;;5002617;28;20028;-77
2021/09/27 12:36:05;;;;;;;23.42;14.05;;;21.90;99.90;;;;;;5013524;28;20388;-76
2021/09/27 12:38:35;;;;;;;20.77;12.13;;;22.00;99.90;;;;;;5007847;28;20037;-76
2021/09/27 12:41:02;;;;;;;18.23;11.32;;;22.00;99.90;;;;;;5010983;28;20022;-76
2021/09/27 12:43:31;;;;;;;15.90;11.35;;;22.20;99.90;;;;;;5011959;28;20034;-76
2021/09/27 12:46:09;;;;;;;17.58;11.70;;;22.10;99.90;;;;;;5012180;28;20057;-76
2021/09/27 12:48:41;;;;;;;19.58;13.02;;;22.10;99.90;;;;;;5012485;28;20033;-77
2021/09/27 12:51:12;;;;;;;;;;;22.10;99.90;;;;;;5011297;28;20444;-77
2021/09/27 12:53:55;;;;;;;16.45;10.23;;;22.20;99.90;;;;;;5012408;28;19964;-77
2021/09/27 12:56:22;;;;;;;17.83;10.73;;;22.20;99.90;;;;;;5012101;28;20052;-78
2021/09/27 12:59:19;;;;;;;14.15;9.40;;;22.20;99.90;;;;;;5011271;28;20145;-76
2021/09/27 13:01:50;;;;;;;18.55;10.75;;;22.20;99.90;;;;;;5006778;28;20512;-78
2021/09/27 13:04:19;;;;;;;15.02;9.88;;;22.20;99.90;;;;;;5011771;28;20080;-77
2021/09/27 13:07:10;;;;;;;12.13;9.00;;;22.20;99.90;;;;;;5011783;28;20029;-77
2021/09/27 13:09:53;;;;;;;16.27;10.37;;;22.20;99.90;;;;;;5001582;28;20034;-78
2021/09/27 13:12:35;;;;;;;16.92;11.15;;;22.20;99.90;;;;;;5011517;28;20084;-78
2021/09/27 13:15:07;;;;;;;19.48;10.60;;;22.20;99.90;;;;;;5012242;28;20525;-77
2021/09/27 13:17:34;;;;;;;15.32;10.45;;;22.30;99.90;;;;;;5011474;28;20033;-77
2021/09/27 13:20:21;;;;;;;16.05;9.93;;;22.40;99.90;;;;;;5011167;28;20072;-77
2021/09/27 13:22:47;;;;;;;15.45;9.98;;;22.50;99.90;;;;;;5011473;28;20042;-78
2021/09/27 13:25:25;;;;;;;14.43;9.60;;;22.40;99.90;;;;;;5010000;28;20022;-78